createdAt,value
2023-03-04T00:00:14.655Z,4.26
2023-03-04T00:01:14.631Z,4.29
2023-03-04T00:02:14.682Z,4.30
2023-03-04T00:03:14.657Z,4.27
2023-03-04T00:04:14.620Z,4.36
2023-03-04T00:05:14.557Z,4.37
2023-03-04T00:06:14.539Z,4.30
2023-03-04T00:07:14.526Z,4.27
2023-03-04T00:08:14.501Z,4.29
2023-03-04T00:09:14.479Z,4.33
2023-03-04T00:10:14.489Z,4.32
2023-03-04T00:11:14.449Z,4.36
2023-03-04T00:12:14.423Z,4.37
2023-03-04T00:13:14.404Z,4.37
2023-03-04T00:14:14.385Z,4.36
2023-03-04T00:15:14.371Z,4.37
2023-03-04T00:16:14.360Z,4.34
2023-03-04T00:17:14.322Z,4.34
2023-03-04T00:18:14.302Z,4.36
2023-03-04T00:19:14.299Z,4.27
2023-03-04T00:20:14.265Z,4.34
2023-03-04T00:21:14.256Z,4.29
2023-03-04T00:22:14.223Z,4.36
2023-03-04T00:23:14.214Z,4.40
2023-03-04T00:24:14.215Z,4.36
2023-03-04T00:25:14.166Z,4.37
2023-03-04T00:26:14.149Z,4.37
2023-03-04T00:27:14.132Z,4.42
2023-03-04T00:28:14.117Z,4.42
2023-03-04T00:29:14.123Z,4.37
2023-03-04T00:30:14.100Z,4.41
2023-03-04T00:31:14.048Z,4.44
2023-03-04T00:32:14.086Z,4.42
2023-03-04T00:33:14.010Z,4.34
2023-03-04T00:34:14.003Z,4.34
2023-03-04T00:35:13.996Z,4.30
2023-03-04T00:36:13.952Z,4.33
2023-03-04T00:37:13.931Z,4.32
2023-03-04T00:38:13.945Z,4.32
2023-03-04T00:39:13.897Z,4.32
2023-03-04T00:40:13.900Z,4.32
2023-03-04T00:41:13.859Z,4.32
2023-03-04T00:42:13.833Z,4.30
2023-03-04T00:43:13.815Z,4.23
2023-03-04T00:44:13.793Z,4.33
2023-03-04T00:45:13.804Z,4.33
2023-03-04T00:46:13.824Z,4.30
2023-03-04T00:47:13.766Z,4.37
2023-03-04T00:48:13.732Z,4.32
2023-03-04T00:49:13.698Z,4.30
2023-03-04T00:50:13.725Z,4.27
2023-03-04T00:51:13.659Z,4.41
2023-03-04T00:52:13.659Z,4.33
2023-03-04T00:53:13.621Z,4.37
2023-03-04T00:54:13.609Z,4.40
2023-03-04T00:55:13.630Z,4.40
2023-03-04T00:56:13.562Z,4.34
2023-03-04T00:57:13.542Z,4.33
2023-03-04T00:58:13.527Z,4.34
2023-03-04T00:59:13.509Z,4.42
2023-03-04T01:00:13.483Z,4.33
2023-03-04T01:01:13.552Z,4.32
2023-03-04T01:02:13.540Z,4.36
2023-03-04T01:03:13.425Z,4.41
2023-03-04T01:04:13.443Z,4.37
2023-03-04T01:05:13.388Z,4.34
2023-03-04T01:06:13.367Z,4.40
2023-03-04T01:07:13.377Z,4.32
2023-03-04T01:08:13.325Z,4.42
2023-03-04T01:09:13.336Z,4.24
2023-03-04T01:10:13.287Z,4.40
2023-03-04T01:11:13.282Z,4.33
2023-03-04T01:12:13.282Z,4.32
2023-03-04T01:13:13.304Z,4.40
2023-03-04T01:14:13.208Z,4.36
2023-03-04T01:15:13.192Z,4.41
2023-03-04T01:16:13.210Z,4.42
2023-03-04T01:17:13.161Z,4.42
2023-03-04T01:18:13.197Z,4.42
2023-03-04T01:19:13.159Z,4.34
2023-03-04T01:20:13.104Z,4.36
2023-03-04T01:21:13.103Z,4.37
2023-03-04T01:22:13.065Z,4.40
2023-03-04T01:23:13.044Z,4.40
2023-03-04T01:24:13.018Z,4.41
2023-03-04T01:25:13.206Z,4.44
2023-03-04T01:26:12.983Z,4.34
2023-03-04T01:27:12.994Z,4.37
2023-03-04T01:28:12.936Z,4.42
2023-03-04T01:29:12.916Z,4.41
2023-03-04T01:30:12.899Z,4.45
2023-03-04T01:31:12.919Z,4.44
2023-03-04T01:32:12.937Z,4.41
2023-03-04T01:33:12.868Z,4.37
2023-03-04T01:34:12.822Z,4.41
2023-03-04T01:35:12.800Z,4.42
2023-03-04T01:36:12.781Z,4.45
2023-03-04T01:37:12.766Z,4.42
2023-03-04T01:38:12.806Z,4.33
2023-03-04T01:39:12.729Z,4.30
2023-03-04T01:40:12.715Z,4.40
2023-03-04T01:41:12.685Z,4.40
2023-03-04T01:42:12.665Z,4.37
2023-03-04T01:43:12.656Z,4.36
2023-03-04T01:44:12.656Z,4.34
2023-03-04T01:45:12.609Z,4.32
2023-03-04T01:46:12.626Z,4.41
2023-03-04T01:47:12.574Z,4.41
2023-03-04T01:48:12.548Z,4.45
2023-03-04T01:49:13.202Z,4.42
2023-03-04T01:50:12.539Z,4.41
2023-03-04T01:51:12.519Z,4.45
2023-03-04T01:52:12.475Z,4.41
2023-03-04T01:53:12.453Z,4.42
2023-03-04T01:54:12.444Z,4.48
2023-03-04T01:55:12.441Z,4.50
2023-03-04T01:56:12.396Z,4.48
2023-03-04T01:57:12.377Z,4.50
2023-03-04T01:58:12.361Z,4.42
2023-03-04T01:59:12.372Z,4.44
2023-03-04T02:00:12.368Z,4.37
2023-03-04T02:01:12.348Z,4.40
2023-03-04T02:02:12.280Z,4.37
2023-03-04T02:03:12.283Z,4.42
2023-03-04T02:04:12.332Z,4.41
2023-03-04T02:05:12.221Z,4.40
2023-03-04T02:06:12.238Z,4.42
2023-03-04T02:07:12.183Z,4.34
2023-03-04T02:08:12.166Z,4.40
2023-03-04T02:09:12.144Z,4.37
2023-03-04T02:10:12.193Z,4.37
2023-03-04T02:11:12.103Z,4.40
2023-03-04T02:12:12.123Z,4.40
2023-03-04T02:13:12.063Z,4.41
2023-03-04T02:14:12.046Z,4.41
2023-03-04T02:15:12.061Z,4.37
2023-03-04T02:16:12.073Z,4.40
2023-03-04T02:17:11.989Z,4.45
2023-03-04T02:18:11.971Z,4.47
2023-03-04T02:19:11.947Z,4.41
2023-03-04T02:20:11.948Z,4.42
2023-03-04T02:21:11.913Z,4.47
2023-03-04T02:22:11.890Z,4.54
2023-03-04T02:23:11.872Z,4.50
2023-03-04T02:24:11.851Z,4.42
2023-03-04T02:25:11.839Z,4.44
2023-03-04T02:26:11.829Z,4.51
2023-03-04T02:27:11.790Z,4.37
2023-03-04T02:28:11.780Z,4.37
2023-03-04T02:29:11.756Z,4.54
2023-03-04T02:30:11.748Z,4.51
2023-03-04T02:31:11.785Z,4.45
2023-03-04T02:32:11.712Z,4.41
2023-03-04T02:33:11.705Z,4.37
2023-03-04T02:34:11.665Z,4.37
2023-03-04T02:35:11.646Z,4.42
2023-03-04T02:36:11.621Z,4.37
2023-03-04T02:37:11.625Z,4.40
2023-03-04T02:38:11.609Z,4.48
2023-03-04T02:39:11.592Z,4.50
2023-03-04T02:40:11.542Z,4.50
2023-03-04T02:41:11.526Z,4.51
2023-03-04T02:42:11.505Z,4.47
2023-03-04T02:43:11.484Z,4.52
2023-03-04T02:44:11.495Z,4.41
2023-03-04T02:45:11.461Z,4.48
2023-03-04T02:46:11.456Z,4.52
2023-03-04T02:47:11.409Z,4.48
2023-03-04T02:48:11.386Z,4.50
2023-03-04T02:49:11.370Z,4.52
2023-03-04T02:50:11.391Z,4.51
2023-03-04T02:51:11.330Z,4.52
2023-03-04T02:52:11.310Z,4.45
2023-03-04T02:53:11.288Z,4.45
2023-03-04T02:54:11.269Z,4.54
2023-03-04T02:55:11.252Z,4.50
2023-03-04T02:56:11.289Z,4.47
2023-03-04T02:57:11.218Z,4.50
2023-03-04T02:58:11.197Z,4.48
2023-03-04T02:59:11.171Z,4.50
2023-03-04T03:00:11.152Z,4.52
2023-03-04T03:01:11.137Z,4.45
2023-03-04T03:02:11.135Z,4.48
2023-03-04T03:03:11.213Z,4.47
2023-03-04T03:04:11.077Z,4.47
2023-03-04T03:05:11.055Z,4.47
2023-03-04T03:06:11.218Z,4.48
2023-03-04T03:07:11.018Z,4.55
2023-03-04T03:08:10.997Z,4.51
2023-03-04T03:09:10.977Z,4.48
2023-03-04T03:10:10.960Z,4.50
2023-03-04T03:11:10.939Z,4.50
2023-03-04T03:12:10.933Z,4.50
2023-03-04T03:13:10.900Z,4.50
2023-03-04T03:14:10.883Z,4.47
2023-03-04T03:15:10.861Z,4.51
2023-03-04T03:16:10.880Z,4.55
2023-03-04T03:17:10.849Z,4.51
2023-03-04T03:18:10.802Z,4.55
2023-03-04T03:19:10.797Z,4.52
2023-03-04T03:20:10.771Z,4.54
2023-03-04T03:21:10.801Z,4.50
2023-03-04T03:22:10.721Z,4.48
2023-03-04T03:23:10.704Z,4.54
2023-03-04T03:24:10.693Z,4.54
2023-03-04T03:25:10.668Z,4.51
2023-03-04T03:26:10.645Z,4.52
2023-03-04T03:27:10.626Z,4.54
2023-03-04T03:28:10.614Z,4.52
2023-03-04T03:29:10.608Z,4.48
2023-03-04T03:30:10.568Z,4.51
2023-03-04T03:31:10.586Z,4.51
2023-03-04T03:32:10.590Z,4.58
2023-03-04T03:33:10.533Z,4.52
2023-03-04T03:34:10.489Z,4.48
2023-03-04T03:35:10.478Z,4.54
2023-03-04T03:36:10.485Z,4.54
2023-03-04T03:37:10.430Z,4.50
2023-03-04T03:38:10.448Z,4.51
2023-03-04T03:39:10.389Z,4.54
2023-03-04T03:40:10.378Z,4.50
2023-03-04T03:41:10.347Z,4.54
2023-03-04T03:42:10.347Z,4.50
2023-03-04T03:43:10.310Z,4.51
2023-03-04T03:44:10.297Z,4.52
2023-03-04T03:45:10.278Z,4.51
2023-03-04T03:46:10.359Z,4.50
2023-03-04T03:47:10.234Z,4.51
2023-03-04T03:48:10.264Z,4.52
2023-03-04T03:49:10.206Z,4.50
2023-03-04T03:50:10.178Z,4.40
2023-03-04T03:51:10.161Z,4.45
2023-03-04T03:52:10.158Z,4.37
2023-03-04T03:53:10.113Z,4.40
2023-03-04T03:54:10.095Z,4.37
2023-03-04T03:55:10.073Z,4.40
2023-03-04T03:56:10.072Z,4.47
2023-03-04T03:57:10.046Z,4.40
2023-03-04T03:58:10.021Z,4.37
2023-03-04T03:59:10.046Z,4.42
2023-03-04T04:00:10.044Z,4.37
2023-03-04T04:01:09.960Z,4.41
2023-03-04T04:02:10.019Z,4.41
2023-03-04T04:03:09.920Z,4.41
2023-03-04T04:04:09.901Z,4.42
2023-03-04T04:05:09.884Z,4.32
2023-03-04T04:06:09.865Z,4.41
2023-03-04T04:07:09.849Z,4.44
2023-03-04T04:08:09.824Z,4.47
2023-03-04T04:09:09.804Z,4.40
2023-03-04T04:10:09.783Z,4.44
2023-03-04T04:11:09.773Z,4.37
2023-03-04T04:12:09.751Z,4.47
2023-03-04T04:13:09.728Z,4.37
2023-03-04T04:14:09.719Z,4.42
2023-03-04T04:15:09.702Z,4.42
2023-03-04T04:16:09.750Z,4.40
2023-03-04T04:17:09.661Z,4.40
2023-03-04T04:18:09.667Z,4.41
2023-03-04T04:19:09.656Z,4.37
2023-03-04T04:20:09.589Z,4.47
2023-03-04T04:21:09.598Z,4.40
2023-03-04T04:22:09.551Z,4.40
2023-03-04T04:23:09.536Z,4.32
2023-03-04T04:24:09.511Z,4.29
2023-03-04T04:25:09.494Z,4.33
2023-03-04T04:26:09.474Z,4.40
2023-03-04T04:27:09.452Z,4.37
2023-03-04T04:28:09.440Z,4.32
2023-03-04T04:29:09.413Z,4.30
2023-03-04T04:30:09.392Z,4.33
2023-03-04T04:31:09.541Z,4.42
2023-03-04T04:32:09.389Z,4.37
2023-03-04T04:33:09.333Z,4.42
2023-03-04T04:34:09.318Z,4.40
2023-03-04T04:35:09.297Z,4.34
2023-03-04T04:36:09.341Z,4.32
2023-03-04T04:37:09.258Z,4.36
2023-03-04T04:38:09.239Z,4.37
2023-03-04T04:39:09.227Z,4.32
2023-03-04T04:40:09.198Z,4.23
2023-03-04T04:41:09.176Z,4.32
2023-03-04T04:42:09.189Z,4.37
2023-03-04T04:43:09.142Z,4.41
2023-03-04T04:44:09.157Z,4.40
2023-03-04T04:45:09.115Z,4.41
2023-03-04T04:46:09.113Z,4.32
2023-03-04T04:47:09.086Z,4.42
2023-03-04T04:48:09.089Z,4.40
2023-03-04T04:49:09.018Z,4.40
2023-03-04T04:50:09.007Z,4.32
2023-03-04T04:51:08.979Z,4.32
2023-03-04T04:52:08.961Z,4.34
2023-03-04T04:53:08.962Z,4.27
2023-03-04T04:54:08.926Z,4.33
2023-03-04T04:55:08.908Z,4.27
2023-03-04T04:56:08.889Z,4.27
2023-03-04T04:57:08.865Z,4.29
2023-03-04T04:58:08.899Z,4.29
2023-03-04T04:59:08.838Z,4.27
2023-03-04T05:00:08.805Z,4.23
2023-03-04T05:01:08.818Z,4.30
2023-03-04T05:02:08.797Z,4.24
2023-03-04T05:03:08.795Z,4.26
2023-03-04T05:04:08.776Z,4.26
2023-03-04T05:05:08.711Z,4.29
2023-03-04T05:06:08.692Z,4.26
2023-03-04T05:07:08.669Z,4.24
2023-03-04T05:08:08.661Z,4.26
2023-03-04T05:09:08.634Z,4.23
2023-03-04T05:10:08.618Z,4.12
2023-03-04T05:11:08.650Z,4.20
2023-03-04T05:12:08.584Z,4.14
2023-03-04T05:13:08.555Z,4.16
2023-03-04T05:14:08.539Z,4.08
2023-03-04T05:15:08.516Z,4.05
2023-03-04T05:16:08.551Z,4.14
2023-03-04T05:17:08.483Z,4.14
2023-03-04T05:18:08.473Z,4.15
2023-03-04T05:19:08.440Z,4.04
2023-03-04T05:20:08.424Z,4.09
2023-03-04T05:21:08.402Z,3.98
2023-03-04T05:22:08.448Z,4.08
2023-03-04T05:23:08.360Z,4.05
2023-03-04T05:24:08.349Z,4.00
2023-03-04T05:25:08.332Z,4.14
2023-03-04T05:26:08.309Z,4.08
2023-03-04T05:27:08.290Z,4.12
2023-03-04T05:28:08.323Z,4.08
2023-03-04T05:29:08.245Z,4.11
2023-03-04T05:30:08.234Z,4.08
2023-03-04T05:31:08.284Z,4.11
2023-03-04T05:32:08.281Z,4.14
2023-03-04T05:33:08.168Z,3.96
2023-03-04T05:34:08.151Z,3.98
2023-03-04T05:35:08.128Z,3.98
2023-03-04T05:36:08.115Z,4.04
2023-03-04T05:37:08.094Z,4.02
2023-03-04T05:38:08.068Z,4.05
2023-03-04T05:39:08.104Z,3.98
2023-03-04T05:40:08.041Z,3.97
2023-03-04T05:41:08.010Z,3.91
2023-03-04T05:42:08.019Z,3.87
2023-03-04T05:43:07.988Z,3.86
2023-03-04T05:44:07.977Z,3.94
2023-03-04T05:45:07.969Z,3.88
2023-03-04T05:46:07.966Z,3.86
2023-03-04T05:47:07.900Z,3.83
2023-03-04T05:48:07.876Z,3.87
2023-03-04T05:49:07.861Z,3.91
2023-03-04T05:50:07.885Z,3.83
2023-03-04T05:51:07.817Z,3.87
2023-03-04T05:52:07.797Z,3.87
2023-03-04T05:53:07.777Z,3.87
2023-03-04T05:54:07.760Z,3.87
2023-03-04T05:55:07.737Z,3.90
2023-03-04T05:56:07.752Z,3.91
2023-03-04T05:57:07.701Z,3.90
2023-03-04T05:58:07.676Z,3.80
2023-03-04T05:59:07.760Z,3.84
2023-03-04T06:00:07.645Z,3.84
2023-03-04T06:01:07.706Z,3.83
2023-03-04T06:02:07.597Z,3.84
2023-03-04T06:03:07.583Z,3.86
2023-03-04T06:04:07.661Z,3.76
2023-03-04T06:05:07.552Z,3.79
2023-03-04T06:06:07.534Z,3.86
2023-03-04T06:07:07.532Z,3.83
2023-03-04T06:08:07.485Z,3.87
2023-03-04T06:09:07.492Z,3.80
2023-03-04T06:10:07.478Z,3.80
2023-03-04T06:11:07.423Z,3.78
2023-03-04T06:12:07.404Z,3.80
2023-03-04T06:13:07.386Z,3.68
2023-03-04T06:14:07.439Z,3.79
2023-03-04T06:15:07.380Z,3.76
2023-03-04T06:16:07.393Z,3.68
2023-03-04T06:17:07.305Z,3.66
2023-03-04T06:18:07.318Z,3.72
2023-03-04T06:19:07.296Z,3.75
2023-03-04T06:20:07.273Z,3.78
2023-03-04T06:21:07.230Z,3.83
2023-03-04T06:22:07.211Z,3.80
2023-03-04T06:23:07.232Z,3.84
2023-03-04T06:24:07.167Z,3.78
2023-03-04T06:25:07.151Z,3.79
2023-03-04T06:26:07.128Z,3.79
2023-03-04T06:27:07.112Z,3.80
2023-03-04T06:28:07.102Z,3.80
2023-03-04T06:29:07.101Z,3.73
2023-03-04T06:30:07.068Z,3.90
2023-03-04T06:31:07.058Z,3.83
2023-03-04T06:32:07.124Z,3.80
2023-03-04T06:33:06.993Z,3.86
2023-03-04T06:34:06.973Z,3.78
2023-03-04T06:35:06.980Z,3.83
2023-03-04T06:36:06.933Z,3.87
2023-03-04T06:37:06.914Z,3.88
2023-03-04T06:38:06.889Z,3.90
2023-03-04T06:39:06.871Z,3.78
2023-03-04T06:40:06.906Z,3.84
2023-03-04T06:41:06.835Z,3.94
2023-03-04T06:42:06.809Z,3.96
2023-03-04T06:43:06.798Z,3.84
2023-03-04T06:44:06.774Z,3.87
2023-03-04T06:45:06.773Z,3.88
2023-03-04T06:46:06.771Z,3.88
2023-03-04T06:47:06.722Z,3.87
2023-03-04T06:48:06.759Z,3.90
2023-03-04T06:49:06.687Z,3.88
2023-03-04T06:50:06.694Z,3.91
2023-03-04T06:51:06.685Z,3.91
2023-03-04T06:52:06.650Z,3.90
2023-03-04T06:53:06.629Z,3.96
2023-03-04T06:54:06.577Z,3.93
2023-03-04T06:55:06.566Z,3.90
2023-03-04T06:56:06.550Z,3.97
2023-03-04T06:57:06.518Z,3.91
2023-03-04T06:58:06.571Z,3.91
2023-03-04T06:59:06.517Z,3.88
2023-03-04T07:00:06.455Z,3.84
2023-03-04T07:01:06.508Z,3.91
2023-03-04T07:02:06.451Z,3.90
2023-03-04T07:03:06.439Z,4.00
2023-03-04T07:04:06.553Z,3.97
2023-03-04T07:05:06.436Z,4.00
2023-03-04T07:06:06.339Z,4.00
2023-03-04T07:07:06.324Z,3.97
2023-03-04T07:08:06.306Z,3.98
2023-03-04T07:09:06.296Z,4.00
2023-03-04T07:10:06.261Z,4.04
2023-03-04T07:11:06.285Z,4.08
2023-03-04T07:12:06.224Z,4.08
2023-03-04T07:13:06.218Z,4.04
2023-03-04T07:14:06.180Z,3.96
2023-03-04T07:15:06.166Z,3.97
2023-03-04T07:16:06.177Z,4.04
2023-03-04T07:17:06.132Z,4.00
2023-03-04T07:18:06.140Z,4.02
2023-03-04T07:19:06.227Z,4.08
2023-03-04T07:20:06.070Z,4.08
2023-03-04T07:21:06.051Z,4.16
2023-03-04T07:22:06.057Z,4.15
2023-03-04T07:23:06.029Z,4.14
2023-03-04T07:24:05.987Z,4.14
2023-03-04T07:25:05.977Z,4.23
2023-03-04T07:26:05.951Z,4.24
2023-03-04T07:27:06.003Z,4.29
2023-03-04T07:28:05.920Z,4.24
2023-03-04T07:29:05.892Z,4.24
2023-03-04T07:30:05.872Z,4.24
2023-03-04T07:31:05.852Z,4.33
2023-03-04T07:32:05.899Z,4.36
2023-03-04T07:33:05.878Z,4.40
2023-03-04T07:34:05.825Z,4.33
2023-03-04T07:35:05.782Z,4.34
2023-03-04T07:36:05.755Z,4.32
2023-03-04T07:37:05.738Z,4.36
2023-03-04T07:38:05.746Z,4.45
2023-03-04T07:39:05.697Z,4.45
2023-03-04T07:40:05.678Z,4.50
2023-03-04T07:41:05.661Z,4.48
2023-03-04T07:42:05.656Z,4.52
2023-03-04T07:43:05.627Z,4.52
2023-03-04T07:44:05.601Z,4.51
2023-03-04T07:45:05.598Z,4.54
2023-03-04T07:46:05.599Z,4.47
2023-03-04T07:47:05.547Z,4.65
2023-03-04T07:48:05.524Z,4.60
2023-03-04T07:49:05.509Z,4.62
2023-03-04T07:50:05.491Z,4.59
2023-03-04T07:51:05.479Z,4.52
2023-03-04T07:52:05.448Z,4.63
2023-03-04T07:53:05.435Z,4.59
2023-03-04T07:54:05.413Z,4.70
2023-03-04T07:55:05.394Z,4.58
2023-03-04T07:56:05.370Z,4.63
2023-03-04T07:57:05.349Z,4.55
2023-03-04T07:58:05.363Z,4.59
2023-03-04T07:59:05.346Z,4.52
2023-03-04T08:00:05.298Z,4.47
2023-03-04T08:01:05.277Z,4.44
2023-03-04T08:02:05.299Z,4.37
2023-03-04T08:03:05.253Z,4.36
2023-03-04T08:04:05.258Z,4.41
2023-03-04T08:05:05.199Z,4.40
2023-03-04T08:06:05.183Z,4.40
2023-03-04T08:07:05.184Z,4.42
2023-03-04T08:08:05.170Z,4.50
2023-03-04T08:09:05.160Z,4.40
2023-03-04T08:10:05.105Z,4.47
2023-03-04T08:11:05.106Z,4.51
2023-03-04T08:12:05.069Z,4.50
2023-03-04T08:13:05.045Z,4.59
2023-03-04T08:14:05.030Z,4.50
2023-03-04T08:15:05.014Z,4.45
2023-03-04T08:16:05.079Z,4.51
2023-03-04T08:17:04.993Z,4.52
2023-03-04T08:18:04.948Z,4.45
2023-03-04T08:19:04.964Z,4.48
2023-03-04T08:20:04.906Z,4.47
2023-03-04T08:21:04.921Z,4.51
2023-03-04T08:22:04.871Z,4.58
2023-03-04T08:23:04.857Z,4.50
2023-03-04T08:24:04.889Z,4.48
2023-03-04T08:25:04.857Z,4.50
2023-03-04T08:26:04.795Z,4.50
2023-03-04T08:27:04.773Z,4.50
2023-03-04T08:28:04.854Z,4.47
2023-03-04T08:29:04.739Z,4.48
2023-03-04T08:30:04.757Z,4.52
2023-03-04T08:31:04.744Z,4.50
2023-03-04T08:32:04.761Z,4.51
2023-03-04T08:33:04.688Z,4.50
2023-03-04T08:34:04.650Z,4.51
2023-03-04T08:35:04.625Z,4.47
2023-03-04T08:36:04.600Z,4.54
2023-03-04T08:37:04.612Z,4.51
2023-03-04T08:38:04.562Z,4.54
2023-03-04T08:39:04.565Z,4.54
2023-03-04T08:40:04.526Z,4.55
2023-03-04T08:41:04.502Z,4.54
2023-03-04T08:42:04.532Z,4.58
2023-03-04T08:43:04.466Z,4.63
2023-03-04T08:44:04.489Z,4.52
2023-03-04T08:45:04.427Z,4.65
2023-03-04T08:46:04.472Z,4.67
2023-03-04T08:47:04.390Z,4.70
2023-03-04T08:48:04.370Z,4.73
2023-03-04T08:49:04.361Z,4.78
2023-03-04T08:50:04.361Z,4.78
2023-03-04T08:51:04.314Z,4.75
2023-03-04T08:52:04.291Z,4.82
2023-03-04T08:53:04.272Z,4.80
2023-03-04T08:54:04.308Z,4.73
2023-03-04T08:55:04.239Z,4.82
2023-03-04T08:56:04.216Z,4.80
2023-03-04T08:57:04.196Z,4.82
2023-03-04T08:58:04.174Z,4.78
2023-03-04T08:59:04.164Z,4.80
2023-03-04T09:00:04.167Z,4.78
2023-03-04T09:01:04.295Z,4.84
2023-03-04T09:02:04.244Z,4.85
2023-03-04T09:03:04.105Z,4.88
2023-03-04T09:04:04.076Z,4.82
2023-03-04T09:05:04.042Z,4.72
2023-03-04T09:06:04.029Z,4.66
2023-03-04T09:07:04.020Z,4.69
2023-03-04T09:08:04.027Z,4.66
2023-03-04T09:09:04.005Z,4.69
2023-03-04T09:10:03.947Z,4.78
2023-03-04T09:11:03.997Z,4.70
2023-03-04T09:12:03.907Z,4.73
2023-03-04T09:13:03.888Z,4.78
2023-03-04T09:14:03.884Z,4.88
2023-03-04T09:15:11.090Z,4.82
2023-03-04T09:16:03.895Z,4.80
2023-03-04T09:17:03.812Z,4.91
2023-03-04T09:18:03.793Z,4.84
2023-03-04T09:19:03.778Z,4.91
2023-03-04T09:20:04.585Z,4.97
2023-03-04T09:21:03.763Z,4.96
2023-03-04T09:22:03.718Z,5.02
2023-03-04T09:23:03.695Z,5.12
2023-03-04T09:24:03.682Z,5.12
2023-03-04T09:25:03.656Z,5.07
2023-03-04T09:26:03.641Z,5.15
2023-03-04T09:27:03.633Z,5.04
2023-03-04T09:28:03.628Z,5.12
2023-03-04T09:29:03.609Z,5.21
2023-03-04T09:30:03.587Z,5.12
2023-03-04T09:31:03.562Z,5.24
2023-03-04T09:32:03.592Z,5.35
2023-03-04T09:33:03.504Z,5.31
2023-03-04T09:34:03.525Z,5.27
2023-03-04T09:35:03.502Z,5.27
2023-03-04T09:36:03.478Z,5.33
2023-03-04T09:37:03.428Z,5.36
2023-03-04T09:38:03.410Z,5.43
2023-03-04T09:39:03.425Z,5.43
2023-03-04T09:40:03.382Z,5.53
2023-03-04T09:41:03.363Z,5.58
2023-03-04T09:42:03.352Z,5.76
2023-03-04T09:43:03.461Z,5.67
2023-03-04T09:44:03.300Z,5.68
2023-03-04T09:45:03.279Z,5.78
2023-03-04T09:46:03.273Z,5.78
2023-03-04T09:47:03.244Z,5.78
2023-03-04T09:48:03.240Z,5.82
2023-03-04T09:49:04.778Z,5.76
2023-03-04T09:50:03.195Z,5.79
2023-03-04T09:51:03.172Z,5.91
2023-03-04T09:52:03.149Z,5.90
2023-03-04T09:53:03.132Z,6.03
2023-03-04T09:54:03.137Z,6.01
2023-03-04T09:55:04.792Z,5.99
2023-03-04T09:56:03.107Z,6.03
2023-03-04T09:57:03.056Z,6.00
2023-03-04T09:58:03.040Z,5.91
2023-03-04T09:59:03.032Z,5.93
2023-03-04T10:00:03.004Z,5.93
2023-03-04T10:01:05.240Z,5.78
2023-03-04T10:02:02.972Z,5.74
2023-03-04T10:03:02.953Z,5.71
2023-03-04T10:04:02.941Z,5.76
2023-03-04T10:05:03.015Z,5.65
2023-03-04T10:06:02.981Z,5.61
2023-03-04T10:07:02.870Z,5.60
2023-03-04T10:08:02.891Z,5.60
2023-03-04T10:09:02.836Z,5.49
2023-03-04T10:10:02.840Z,5.48
2023-03-04T10:11:02.803Z,5.43
2023-03-04T10:12:02.854Z,5.43
2023-03-04T10:13:02.759Z,5.36
2023-03-04T10:14:02.742Z,5.38
2023-03-04T10:15:02.758Z,5.33
2023-03-04T10:16:02.727Z,5.46
2023-03-04T10:17:02.692Z,5.39
2023-03-04T10:18:02.668Z,5.40
2023-03-04T10:19:02.649Z,5.51
2023-03-04T10:20:02.656Z,5.49
2023-03-04T10:21:02.615Z,5.36
2023-03-04T10:22:02.645Z,5.49
2023-03-04T10:23:02.570Z,5.40
2023-03-04T10:24:02.552Z,5.56
2023-03-04T10:25:02.544Z,5.51
2023-03-04T10:26:02.516Z,5.56
2023-03-04T10:27:02.537Z,5.64
2023-03-04T10:28:02.541Z,5.68
2023-03-04T10:29:02.483Z,5.75
2023-03-04T10:30:02.501Z,5.75
2023-03-04T10:31:02.425Z,5.81
2023-03-04T10:32:02.603Z,5.81
2023-03-04T10:33:02.377Z,5.83
2023-03-04T10:34:02.385Z,5.78
2023-03-04T10:35:02.515Z,5.76
2023-03-04T10:36:02.388Z,5.71
2023-03-04T10:37:02.298Z,5.68
2023-03-04T10:38:02.281Z,5.81
2023-03-04T10:39:02.272Z,5.71
2023-03-04T10:40:02.245Z,5.78
2023-03-04T10:41:02.232Z,5.63
2023-03-04T10:42:02.336Z,5.67
2023-03-04T10:43:02.183Z,5.72
2023-03-04T10:44:02.165Z,5.71
2023-03-04T10:45:02.195Z,5.75
2023-03-04T10:46:02.165Z,5.82
2023-03-04T10:47:02.284Z,5.89
2023-03-04T10:48:02.092Z,5.96
2023-03-04T10:49:02.071Z,6.03
2023-03-04T10:50:02.123Z,6.09
2023-03-04T10:51:02.034Z,6.15
2023-03-04T10:52:02.045Z,6.19
2023-03-04T10:53:02.000Z,6.15
2023-03-04T10:54:01.978Z,6.11
2023-03-04T10:55:01.962Z,6.17
2023-03-04T10:56:01.940Z,6.09
2023-03-04T10:57:01.950Z,6.01
2023-03-04T10:58:01.910Z,6.01
2023-03-04T10:59:01.891Z,5.93
2023-03-04T11:00:01.869Z,5.93
2023-03-04T11:01:01.904Z,5.91
2023-03-04T11:02:01.864Z,5.96
2023-03-04T11:03:01.819Z,6.00
2023-03-04T11:04:01.907Z,5.99
2023-03-04T11:05:01.842Z,6.04
2023-03-04T11:06:01.757Z,6.04
2023-03-04T11:07:01.736Z,5.96
2023-03-04T11:08:01.756Z,5.97
2023-03-04T11:09:01.704Z,5.86
2023-03-04T11:10:01.874Z,5.90
2023-03-04T11:11:01.669Z,5.89
2023-03-04T11:12:01.647Z,5.78
2023-03-04T11:13:01.636Z,5.79
2023-03-04T11:14:01.607Z,6.00
2023-03-04T11:15:01.601Z,5.90
2023-03-04T11:16:01.574Z,5.94
2023-03-04T11:17:01.568Z,5.99
2023-03-04T11:18:01.537Z,5.91
2023-03-04T11:19:01.528Z,5.97
2023-03-04T11:20:01.528Z,5.96
2023-03-04T11:21:01.486Z,5.96
2023-03-04T11:22:01.472Z,6.06
2023-03-04T11:23:03.545Z,6.03
2023-03-04T11:24:01.453Z,6.04
2023-03-04T11:25:01.465Z,6.04
2023-03-04T11:26:01.388Z,6.00
2023-03-04T11:27:01.381Z,6.11
2023-03-04T11:28:01.353Z,6.25
2023-03-04T11:29:01.339Z,6.40
2023-03-04T11:30:01.317Z,6.61
2023-03-04T11:31:01.328Z,6.70
2023-03-04T11:32:01.499Z,6.62
2023-03-04T11:33:01.285Z,6.66
2023-03-04T11:34:01.243Z,6.59
2023-03-04T11:35:01.266Z,6.58
2023-03-04T11:36:01.750Z,6.44
2023-03-04T11:37:01.220Z,6.38
2023-03-04T11:38:01.195Z,6.38
2023-03-04T11:39:01.165Z,6.34
2023-03-04T11:40:01.156Z,6.12
2023-03-04T11:41:01.137Z,6.17
2023-03-04T11:42:01.156Z,6.21
2023-03-04T11:43:01.107Z,6.33
2023-03-04T11:44:01.097Z,6.33
2023-03-04T11:45:01.070Z,6.36
2023-03-04T11:46:01.109Z,6.34
2023-03-04T11:47:01.065Z,6.33
2023-03-04T11:48:01.020Z,6.33
2023-03-04T11:49:01.005Z,6.28
2023-03-04T11:50:00.985Z,6.28
2023-03-04T11:51:00.976Z,6.15
2023-03-04T11:52:00.978Z,6.28
2023-03-04T11:53:00.938Z,6.17
2023-03-04T11:54:00.916Z,6.18
2023-03-04T11:55:00.902Z,6.28
2023-03-04T11:56:00.883Z,6.15
2023-03-04T11:57:00.857Z,6.06
2023-03-04T11:58:00.879Z,6.00
2023-03-04T11:59:00.893Z,6.00
2023-03-04T12:00:00.803Z,6.00
2023-03-04T12:01:00.789Z,6.00
2023-03-04T12:02:00.785Z,5.96
2023-03-04T12:03:00.746Z,5.96
2023-03-04T12:04:00.867Z,5.82
2023-03-04T12:05:00.764Z,5.96
2023-03-04T12:06:00.709Z,5.82
2023-03-04T12:07:00.682Z,5.82
2023-03-04T12:08:00.661Z,5.78
2023-03-04T12:09:00.676Z,5.78
2023-03-04T12:10:00.621Z,5.75
2023-03-04T12:11:00.612Z,5.68
2023-03-04T12:12:00.590Z,5.67
2023-03-04T12:13:00.564Z,5.57
2023-03-04T12:14:00.576Z,5.53
2023-03-04T12:15:00.527Z,5.57
2023-03-04T12:16:00.546Z,5.43
2023-03-04T12:17:00.490Z,5.43
2023-03-04T12:18:00.476Z,5.45
2023-03-04T12:19:00.502Z,5.40
2023-03-04T12:20:00.458Z,5.39
2023-03-04T12:21:00.418Z,5.36
2023-03-04T12:22:00.400Z,5.35
2023-03-04T12:23:00.389Z,5.45
2023-03-04T12:24:00.366Z,5.48
2023-03-04T12:25:00.374Z,5.43
2023-03-04T12:26:00.324Z,5.56
2023-03-04T12:27:00.309Z,5.60
2023-03-04T12:28:00.301Z,5.64
2023-03-04T12:29:00.274Z,5.61
2023-03-04T12:30:00.285Z,5.65
2023-03-04T12:31:00.271Z,5.78
2023-03-04T12:32:00.289Z,5.76
2023-03-04T12:33:00.198Z,5.71
2023-03-04T12:34:00.175Z,5.75
2023-03-04T12:35:00.158Z,5.81
2023-03-04T12:36:00.291Z,5.85
2023-03-04T12:37:00.122Z,5.82
2023-03-04T12:38:00.111Z,5.91
2023-03-04T12:39:00.113Z,6.09
2023-03-04T12:40:00.084Z,6.18
2023-03-04T12:41:00.051Z,6.27
2023-03-04T12:42:00.037Z,6.34
2023-03-04T12:43:00.015Z,6.28
2023-03-04T12:43:59.994Z,6.34
2023-03-04T12:44:59.976Z,6.40
2023-03-04T12:45:59.992Z,6.40
2023-03-04T12:46:59.977Z,6.31
2023-03-04T12:47:59.985Z,6.41
2023-03-04T12:48:59.915Z,6.41
2023-03-04T12:49:59.889Z,6.46
2023-03-04T12:50:59.875Z,6.55
2023-03-04T12:51:59.884Z,6.54
2023-03-04T12:52:59.833Z,6.48
2023-03-04T12:53:59.832Z,6.48
2023-03-04T12:54:59.810Z,6.62
2023-03-04T12:55:59.796Z,6.69
2023-03-04T12:56:59.792Z,6.61
2023-03-04T12:57:59.752Z,6.66
2023-03-04T12:58:59.740Z,6.73
2023-03-04T12:59:59.713Z,6.70
2023-03-04T13:00:59.694Z,6.69
2023-03-04T13:02:02.004Z,6.70
2023-03-04T13:02:59.827Z,6.76
2023-03-04T13:03:59.683Z,6.71
2023-03-04T13:04:59.628Z,6.52
2023-03-04T13:05:59.605Z,6.33
2023-03-04T13:06:59.590Z,6.12
2023-03-04T13:07:59.700Z,6.00
2023-03-04T13:08:59.557Z,5.93
2023-03-04T13:09:59.536Z,5.82
2023-03-04T13:10:59.525Z,5.68
2023-03-04T13:11:59.502Z,5.63
2023-03-04T13:12:59.507Z,5.57
2023-03-04T13:13:59.466Z,5.48
2023-03-04T13:14:59.446Z,5.51
2023-03-04T13:15:59.440Z,5.36
2023-03-04T13:16:59.410Z,5.49
2023-03-04T13:17:59.392Z,5.39